createdAt,value
2023-03-12T00:02:40.733Z,-1.25
2023-03-12T00:07:45.020Z,-1.09
2023-03-12T00:12:48.056Z,-1.08
2023-03-12T00:17:51.269Z,-1.28
2023-03-12T00:22:55.547Z,-1.29
2023-03-12T00:27:58.504Z,-1.44
2023-03-12T00:33:01.433Z,-1.20
2023-03-12T00:38:05.699Z,-1.38
2023-03-12T00:43:08.734Z,-1.34
2023-03-12T00:48:11.646Z,-1.20
2023-03-12T00:53:15.951Z,-1.16
2023-03-12T00:58:18.870Z,-1.15
2023-03-12T01:03:21.776Z,-1.21
2023-03-12T01:08:26.230Z,-1.22
2023-03-12T01:13:29.642Z,-1.33
2023-03-12T01:18:32.867Z,-1.44
2023-03-12T01:23:37.143Z,-1.38
2023-03-12T01:28:40.078Z,-1.41
2023-03-12T01:33:43.282Z,-1.41
2023-03-12T01:38:47.951Z,-1.38
2023-03-12T01:43:50.993Z,-1.37
2023-03-12T01:48:57.950Z,-1.38
2023-03-12T01:54:08.081Z,-1.37
2023-03-12T01:59:16.504Z,-1.36
2023-03-12T02:04:22.595Z,-1.44
2023-03-12T02:09:27.758Z,-1.50
2023-03-12T02:14:30.944Z,-1.55
2023-03-12T02:19:42.664Z,-1.53
2023-03-12T02:24:53.090Z,-1.39
2023-03-12T02:29:57.504Z,-1.51
2023-03-12T02:35:01.598Z,-1.49
2023-03-12T02:40:11.002Z,-1.51
2023-03-12T02:45:15.369Z,-1.58
2023-03-12T02:50:18.344Z,-1.55
2023-03-12T02:55:21.425Z,-1.64
2023-03-12T03:00:26.078Z,-1.79
2023-03-12T03:05:30.372Z,-1.77
2023-03-12T03:10:33.384Z,-1.74
2023-03-12T03:15:38.812Z,-1.76
2023-03-12T03:20:43.502Z,-1.87
2023-03-12T03:25:47.829Z,-1.88
2023-03-12T03:30:53.898Z,-1.84
2023-03-12T03:35:58.023Z,-1.79
2023-03-12T03:41:01.161Z,-1.79
2023-03-12T03:46:08.135Z,-1.92
2023-03-12T03:51:15.713Z,-1.73
2023-03-12T03:56:22.101Z,-1.88
2023-03-12T04:01:27.933Z,-1.88
2023-03-12T04:06:32.668Z,-1.84
2023-03-12T04:11:35.633Z,-2.02
2023-03-12T04:16:41.431Z,-1.94
2023-03-12T04:21:44.333Z,-1.88
2023-03-12T04:26:48.400Z,-1.95
2023-03-12T04:31:54.098Z,-1.93
2023-03-12T04:36:57.597Z,-2.09
2023-03-12T04:42:00.617Z,-1.96
2023-03-12T04:47:05.384Z,-1.81
2023-03-12T04:52:08.490Z,-1.82
2023-03-12T04:57:11.502Z,-1.97
2023-03-12T05:02:15.796Z,-2.07
2023-03-12T05:07:19.855Z,-2.01
2023-03-12T05:12:22.715Z,-1.97
2023-03-12T05:17:27.115Z,-1.94
2023-03-12T05:22:30.026Z,-1.77
2023-03-12T05:27:33.326Z,-1.74
2023-03-12T05:32:38.490Z,-1.77
2023-03-12T05:37:42.860Z,-1.65
2023-03-12T05:42:47.056Z,-1.56
2023-03-12T05:47:51.287Z,-1.69
2023-03-12T05:52:54.328Z,-1.54
2023-03-12T05:57:57.312Z,-1.63
2023-03-12T06:03:01.782Z,-1.41
2023-03-12T06:08:06.349Z,-1.51
2023-03-12T06:13:10.912Z,-1.10
2023-03-12T06:18:15.418Z,-0.64
2023-03-12T06:23:21.103Z,-0.44
2023-03-12T06:28:24.764Z,0.40
2023-03-12T06:33:29.368Z,0.57
2023-03-12T06:38:32.455Z,0.98
2023-03-12T06:43:38.066Z,1.47
2023-03-12T06:48:42.547Z,1.82
2023-03-12T06:53:46.820Z,1.84
2023-03-12T06:58:50.148Z,2.03
2023-03-12T07:03:54.435Z,2.18
2023-03-12T07:08:57.332Z,2.35
2023-03-12T07:14:00.208Z,2.07
2023-03-12T07:19:04.964Z,2.61
2023-03-12T07:24:08.941Z,2.50
2023-03-12T07:29:11.843Z,2.17
2023-03-12T07:34:16.316Z,2.88
2023-03-12T07:39:19.385Z,3.45
2023-03-12T07:44:22.293Z,3.37
2023-03-12T07:49:27.596Z,3.88
2023-03-12T07:54:30.801Z,4.22
2023-03-12T07:59:34.080Z,4.16
2023-03-12T08:04:39.069Z,4.34
2023-03-12T08:09:42.477Z,4.69
2023-03-12T08:14:46.756Z,4.55
2023-03-12T08:19:51.241Z,5.10
2023-03-12T08:24:54.143Z,5.26
2023-03-12T08:29:57.256Z,4.25
2023-03-12T08:35:01.630Z,4.74
2023-03-12T08:40:12.920Z,4.84
2023-03-12T08:45:16.287Z,4.59
2023-03-12T08:50:22.277Z,5.00
2023-03-12T08:55:26.285Z,4.57
2023-03-12T09:00:29.426Z,4.45
2023-03-12T09:05:34.084Z,5.09
2023-03-12T09:10:37.122Z,5.04
2023-03-12T09:15:40.050Z,4.96
2023-03-12T09:20:44.814Z,6.25
2023-03-12T09:25:48.463Z,6.25
2023-03-12T09:30:51.509Z,6.53
2023-03-12T09:35:59.912Z,6.04
2023-03-12T09:41:05.349Z,5.07
2023-03-12T09:46:14.766Z,5.23
2023-03-12T09:51:23.386Z,4.62
2023-03-12T09:56:28.058Z,4.95
2023-03-12T10:01:39.720Z,4.77
2023-03-12T10:06:49.167Z,5.64
2023-03-12T10:11:59.749Z,5.58
2023-03-12T10:17:18.960Z,5.59
2023-03-12T10:22:33.609Z,6.48
2023-03-12T10:27:37.621Z,6.26
2023-03-12T10:32:43.569Z,6.74
2023-03-12T10:37:49.793Z,5.90
2023-03-12T10:42:53.100Z,6.12
2023-03-12T10:48:00.110Z,6.57
2023-03-12T10:53:23.777Z,6.80
2023-03-12T10:58:27.614Z,5.94
2023-03-12T11:03:30.832Z,6.53
2023-03-12T11:08:37.054Z,7.43
2023-03-12T11:13:42.063Z,6.67
2023-03-12T11:18:56.375Z,5.90
2023-03-12T11:24:10.433Z,7.30
2023-03-12T11:29:24.126Z,6.92
2023-03-12T11:34:30.405Z,6.23
2023-03-12T11:39:49.655Z,6.65
2023-03-12T11:45:04.409Z,7.00
2023-03-12T11:50:31.932Z,7.65
2023-03-12T11:55:57.113Z,7.41
2023-03-12T12:01:10.853Z,8.02
2023-03-12T12:06:22.944Z,7.86
2023-03-12T12:11:36.380Z,7.16
2023-03-12T12:16:52.583Z,7.01
2023-03-12T12:22:10.799Z,7.08
2023-03-12T12:27:21.203Z,6.54
2023-03-12T12:32:32.261Z,7.52
2023-03-12T12:37:46.403Z,8.11
2023-03-12T12:43:01.985Z,8.38
2023-03-12T12:48:10.066Z,7.58
2023-03-12T12:53:21.684Z,7.14
2023-03-12T12:58:45.276Z,6.44
2023-03-12T13:03:49.347Z,6.61
2023-03-12T13:09:15.175Z,6.35
2023-03-12T13:14:36.592Z,6.71
2023-03-12T13:19:45.053Z,7.32
2023-03-12T13:25:00.947Z,6.71
2023-03-12T13:30:37.440Z,6.47
2023-03-12T13:35:42.445Z,6.74
2023-03-12T13:41:05.110Z,6.81
2023-03-12T13:46:21.709Z,6.29
2023-03-12T13:51:27.099Z,6.46
2023-03-12T13:56:32.489Z,6.37
2023-03-12T14:01:38.817Z,6.55
2023-03-12T14:06:59.783Z,6.02
2023-03-12T14:12:06.647Z,6.38
2023-03-12T14:17:17.826Z,5.85
2023-03-12T14:22:24.033Z,6.00
2023-03-12T14:27:30.289Z,5.49
2023-03-12T14:32:34.866Z,5.28
2023-03-12T14:37:43.976Z,5.30
2023-03-12T14:42:47.468Z,4.91
2023-03-12T14:47:55.142Z,4.46
2023-03-12T14:53:13.661Z,4.83
2023-03-12T14:58:18.948Z,4.78
2023-03-12T15:03:22.033Z,4.95
2023-03-12T15:08:26.954Z,5.01
2023-03-12T15:13:29.956Z,4.92
2023-03-12T15:18:34.679Z,5.16
2023-03-12T15:23:40.305Z,5.09
2023-03-12T15:28:43.958Z,4.34
2023-03-12T15:34:00.129Z,4.66
2023-03-12T15:39:15.137Z,4.82
2023-03-12T15:44:21.481Z,4.98
2023-03-12T15:49:29.347Z,5.09
2023-03-12T15:54:35.193Z,4.78
2023-03-12T15:59:38.556Z,4.84
2023-03-12T16:04:41.441Z,4.61
2023-03-12T16:09:45.861Z,4.24
2023-03-12T16:14:50.147Z,4.49
2023-03-12T16:19:53.224Z,4.41
2023-03-12T16:24:57.479Z,4.33
2023-03-12T16:30:00.798Z,4.44
2023-03-12T16:35:10.850Z,4.66
2023-03-12T16:40:27.535Z,4.54
2023-03-12T16:45:37.713Z,4.41
2023-03-12T16:50:40.733Z,4.59
2023-03-12T16:55:51.392Z,4.60
2023-03-12T17:00:55.893Z,4.68
2023-03-12T17:05:58.899Z,4.81
2023-03-12T17:11:04.439Z,4.92
2023-03-12T17:16:07.727Z,4.85
2023-03-12T17:21:13.356Z,4.92
2023-03-12T17:26:18.305Z,4.80
2023-03-12T17:31:21.521Z,4.81
2023-03-12T17:36:24.521Z,4.86
2023-03-12T17:41:28.964Z,4.98
2023-03-12T17:46:32.529Z,5.15
2023-03-12T17:51:35.691Z,5.14
2023-03-12T17:56:39.946Z,5.17
2023-03-12T18:01:42.818Z,5.21
2023-03-12T18:06:45.721Z,5.35
2023-03-12T18:11:49.996Z,5.33
2023-03-12T18:16:52.953Z,5.42
2023-03-12T18:21:56.005Z,5.48
2023-03-12T18:27:00.532Z,5.58
2023-03-12T18:32:04.218Z,5.70
2023-03-12T18:37:07.062Z,5.75
2023-03-12T18:42:11.335Z,5.78
2023-03-12T18:47:14.351Z,6.01
2023-03-12T18:52:17.292Z,6.03
2023-03-12T18:57:21.539Z,6.11
2023-03-12T19:02:24.716Z,6.15
2023-03-12T19:07:27.655Z,6.25
2023-03-12T19:12:42.242Z,6.27
2023-03-12T19:17:52.650Z,6.40
2023-03-12T19:22:55.649Z,6.48
2023-03-12T19:28:00.100Z,6.46
2023-03-12T19:33:03.236Z,6.51
2023-03-12T19:38:06.456Z,6.62
2023-03-12T19:43:10.822Z,6.74
2023-03-12T19:48:14.248Z,6.71
2023-03-12T19:53:17.979Z,6.75
2023-03-12T19:58:22.768Z,6.72
2023-03-12T20:03:25.877Z,6.74
2023-03-12T20:08:31.328Z,6.78
2023-03-12T20:13:35.713Z,6.78
2023-03-12T20:18:38.848Z,6.81
2023-03-12T20:23:41.782Z,6.93
2023-03-12T20:28:46.043Z,7.13
2023-03-12T20:33:48.992Z,7.12
2023-03-12T20:38:52.322Z,7.22
2023-03-12T20:43:57.956Z,7.13
2023-03-12T20:49:00.973Z,7.26
2023-03-12T20:54:03.990Z,7.33
2023-03-12T20:59:08.316Z,7.37
2023-03-12T21:04:11.218Z,7.35
2023-03-12T21:09:15.111Z,7.37
2023-03-12T21:14:19.372Z,7.37
2023-03-12T21:19:22.289Z,7.41
2023-03-12T21:24:25.324Z,7.50
2023-03-12T21:29:29.858Z,7.47
2023-03-12T21:34:32.817Z,7.52
2023-03-12T21:39:35.990Z,7.62
2023-03-12T21:44:40.268Z,7.61
2023-03-12T21:49:43.165Z,7.66
2023-03-12T21:54:46.134Z,7.77
2023-03-12T21:59:50.394Z,7.75
2023-03-12T22:04:53.445Z,7.72
2023-03-12T22:09:56.352Z,7.74
2023-03-12T22:15:00.665Z,7.72
2023-03-12T22:20:07.837Z,7.85
2023-03-12T22:25:10.865Z,7.81
2023-03-12T22:30:15.807Z,7.92
2023-03-12T22:35:25.518Z,7.94
2023-03-12T22:40:28.437Z,7.98
2023-03-12T22:45:33.018Z,7.97
2023-03-12T22:50:35.944Z,7.91
2023-03-12T22:55:38.869Z,7.84
2023-03-12T23:00:43.122Z,7.96
2023-03-12T23:05:46.466Z,7.99
2023-03-12T23:10:53.759Z,7.98
2023-03-12T23:16:02.401Z,8.06
2023-03-12T23:21:07.560Z,8.08
2023-03-12T23:26:14.206Z,8.07
2023-03-12T23:31:18.803Z,8.10
2023-03-12T23:36:23.281Z,8.10
2023-03-12T23:41:29.264Z,8.09
2023-03-12T23:46:33.861Z,8.13
2023-03-12T23:51:39.390Z,8.14
2023-03-12T23:56:42.703Z,8.17
